Alerte intempéries pour Achiet le Grand

Achiet le Grand (62121)
Alerte de niveau orange de tempête
valide à  partir du: mercredi 13 décembre 2017 - 01:00
jusqu'au: vendredi 15 décembre 2017 - 01:00
valide pour: toutes les altitudes
 
Alerte d'intempéries pour tempête avec plus de 75 km/h, valide à  partir de mercredi, 13.12. 01:00 jusqu'au vendredi, 15.12. 01:00.
La dernière actualisation de cette alerte a été effectuée à  mardi 12 décembre 2017 - 23:05 heures.


Achiet le Grand s'étend en altitude de 77 à  144 m.
Toutes les heures sont indiquées en heure locale

Rapports des METAR proches

 

LFAQ - Bray, France
Distance from station: SSO 19km
Mise à jour: 13/12/2017 13:30
Très nuageux
Très nuageux
 Vent SSO
Vent: SSO 22 km/h
Température: 7°C
Température au vent: 4°C
Point de rosée: 6°C
Humidité: 93%
Baromètre: 1001 hPa
Clouds: Très nuageux
Visibility: 10 km
Cloud details: Partiellement nuageux 244 m
Très nuageux 732 m
Très nuageux 914 m
2017/12/13 12:30 LFAQ 131230Z AUTO 20012KT 9999 SCT008 BKN024 BKN030 07/06 Q1001 TEMPO 4000 RA OVC004
LFQQ - Lille/Lesquin, France
Distance from station: NNE 53km
Mise à jour: 13/12/2017 13:30
Pluie, Très nuageux
Pluie, Très nuageux
 Vent SO
Vent: SO 24 km/h
Température: 7°C
Température au vent: 3°C
Point de rosée: 5°C
Humidité: 87%
Baromètre: 1000 hPa
Résumé: Pluie
Clouds: Très nuageux
Visibility: 6 km
Cloud details: Quelques nuages 427 m
Très nuageux 640 m
Très nuageux 853 m
2017/12/13 12:30 LFQQ 131230Z AUTO 22013KT 6000 RA FEW014 BKN021 BKN028 07/05 Q1000 TEMPO 4000 RA OVC007 BECMG 21020G30KT
EBCV - Chievres Ab, Belgium
Distance from station: NE 88km
Mise à jour: 13/12/2017 13:25
Pluie faible, Couvert
Pluie faible, Couvert
 Vent SSO
Vent: SSO 28 km/h
Température: 6°C
Température au vent: 2°C
Point de rosée: 6°C
Humidité: 100%
Baromètre: 1000 hPa
Résumé: Pluie faible
Clouds: Couvert
Visibility: 10 km
Cloud details: Couvert 274 m
2017/12/13 12:25 EBCV 131225Z AUTO 21015KT 9999 -RA OVC009/// 06/06 Q1000 GRN
 
LFOB - Beauvais/Tille(A, France
Distance from station: SSO 88km
Mise à jour: 13/12/2017 13:30
Couvert
Couvert
 Vent SO
Vent: SO 22 km/h
Température: 8°C
Température au vent: 4°C
Point de rosée: 7°C
Humidité: 93%
Baromètre: 1002 hPa
Clouds: Couvert
Visibility: 10 km
Cloud details: Très nuageux 274 m
Très nuageux 457 m
Couvert 1250 m
2017/12/13 12:30 LFOB 131230Z AUTO 22012KT 9999 BKN009 BKN015 OVC041 08/07 Q1002 TEMPO 4000 RA
LFAT - Le Touquet/P. Pl, France
Distance from station: ONO 93km
Mise à jour: 13/12/2017 13:30
Pluie faible, Orage
Pluie faible, Orage
 Vent SO
Vent: SO 17 km/h
Température: 9°C
Température au vent: 7°C
Point de rosée: 8°C
Humidité: 94%
Baromètre: 999 hPa
Résumé: Pluie faible
Clouds: Orage
Visibility: 9 km
Cloud details: Partiellement nuageux 457 m
Très nuageux 732 m
Très nuageux 1036 m
2017/12/13 12:30 LFAT 131230Z AUTO 22009KT 200V260 9000 -RA SCT015/// BKN024/// BKN034/// ///TCU 09/08 Q0999 TEMPO 22020G30KT 4000 RADZ OVC004
LFPC - Creil (fafb), France
Distance from station: S 100km
Mise à jour: 01/09/2016 17:00
NOT Current
Clair
Clair
 Vent ONO
Vent: ONO 7 km/h
Température: 24°C
Point de rosée: 13°C
Humidité: 50%
Baromètre: 1023 hPa
Résumé: Clair
Visibility: greater than 10 km
2016/09/01 15:00 LFPC 011500Z AUTO 30004KT 240V350 CAVOK 24/13 Q1023
 
EBFN - Koksijde (bel-Af, Belgium
Distance from station: N 105km
Mise à jour: 13/12/2017 13:25
Pluie faible, Crachin, Très nuageux
Pluie faible, Crachin, Très nuageux
 Vent SO
Vent: SO 19 km/h
Température: 7°C
Température au vent: 4°C
Point de rosée: 6°C
Humidité: 93%
Baromètre: 998 hPa
Résumé: Pluie faible, Crachin
Clouds: Très nuageux
Visibility: 10 km
Cloud details: Partiellement nuageux 610 m
Très nuageux 1524 m
2017/12/13 12:25 EBFN 131225Z 23010KT 9999 -RADZ SCT020 BKN050 07/06 Q0998 WHT WHT TEMPO GRN
EBOS - Oostende Airport, Belgium
Distance from station: N 119km
Mise à jour: 13/12/2017 13:50
Pluie faible, Partiellement nuageux
Pluie faible, Partiellement nuageux
 Vent SO
Vent: SO 22 km/h
Température: 7°C
Température au vent: 4°C
Point de rosée: 5°C
Humidité: 87%
Baromètre: 998 hPa
Résumé: Pluie faible
Clouds: Partiellement nuageux
Visibility: 10 km
Cloud details: Quelques nuages 975 m
Partiellement nuageux 1433 m
2017/12/13 12:50 EBOS 131250Z 22012KT 9999 -RA FEW032 SCT047 07/05 Q0998 TEMPO 2500 BKN008
EBCI - Charleroi/Gossel, Belgium
Distance from station: ENE 124km
Mise à jour: 13/12/2017 13:50
Pluie faible, Très nuageux
Pluie faible, Très nuageux
 Vent SSO
Vent: SSO 22 km/h
Température: 5°C
Température au vent: 1°C
Point de rosée: 4°C
Humidité: 93%
Baromètre: 1000 hPa
Résumé: Pluie faible
Clouds: Très nuageux
Visibility: 10 km
Cloud details: Très nuageux 183 m
Très nuageux 244 m
2017/12/13 12:50 EBCI 131250Z 20012KT 9999 -RA BKN006 BKN008 05/04 Q1000 TEMPO 22018G28KT 4000 RADZ BKN005
 
LFPG - Charles De Gaull, France
Distance from station: S 125km
Mise à jour: 13/12/2017 13:30
Très nuageux
Très nuageux
 Vent SO
Vent: SO 22 km/h
Température: 8°C
Température au vent: 4°C
Point de rosée: 7°C
Humidité: 93%
Baromètre: 1004 hPa
Clouds: Très nuageux
Visibility: 10 km
Cloud details: Très nuageux 305 m
2017/12/13 12:30 LFPG 131230Z 22012KT 9999 BKN010 08/07 Q1004 NOSIG
LFPT - Cormeilles Vexin, France
Distance from station: SSO 127km
Mise à jour: 13/12/2017 13:30
Couvert
Couvert
 Vent SO
Vent: SO 24 km/h
Température: 8°C
Température au vent: 4°C
Point de rosée: 7°C
Humidité: 93%
Baromètre: 1003 hPa
Clouds: Couvert
Visibility: 10 km
Cloud details: Très nuageux 335 m
Couvert 518 m
2017/12/13 12:30 LFPT 131230Z AUTO 23013KT 9999 BKN011 OVC017 08/07 Q1003
LFPB - Paris/Le Bourget, France
Distance from station: S 132km
Mise à jour: 13/12/2017 13:30
Couvert
Couvert
 Vent SO
Vent: SO 22 km/h
Température: 9°C
Température au vent: 6°C
Point de rosée: 7°C
Humidité: 87%
Baromètre: 1004 hPa
Clouds: Couvert
Visibility: 10 km
Cloud details: Couvert 396 m
2017/12/13 12:30 LFPB 131230Z AUTO 22012KT 190V250 9999 OVC013 09/07 Q1004 BECMG 21020G30KT 4000 -RA OVC007
 
EBFS - Florennes (bel-A, Belgium
Distance from station: E 133km
Mise à jour: 13/12/2017 13:25
Très nuageux
Très nuageux
 Vent S
Vent: S 22 km/h
Température: 3°C
Température au vent: -2°C
Point de rosée: 2°C
Humidité: 93%
Baromètre: 1001 hPa
Clouds: Très nuageux
Visibility: 10 km
Cloud details: Partiellement nuageux 183 m
Très nuageux 244 m
2017/12/13 12:25 EBFS 131225Z 19012KT 9999 SCT006 BKN008 03/02 Q1001 YLO YLO
LFQA - Reims/Prunay, France
Distance from station: SE 143km
Mise à jour: 12/12/2017 17:00
NOT Current
Très nuageux
Très nuageux
 Vent SO
Vent: SO 7 km/h
Température: 4°C
Température au vent: 2°C
Point de rosée: 1°C
Humidité: 81%
Baromètre: 1014 hPa
Clouds: Très nuageux
Visibility: 10 km
Cloud details: Très nuageux 792 m
Très nuageux 1006 m
Très nuageux 1646 m
2017/12/12 16:00 LFQA 121600Z AUTO 23004KT 9999 BKN026 BKN033 BKN054 04/01 Q1014
LFOP - Rouen/Boos (aut), France
Distance from station: SO 144km
Mise à jour: 13/12/2017 13:30
Couvert
Couvert
 Vent SO
Vent: SO 22 km/h
Température: 8°C
Température au vent: 4°C
Point de rosée: 8°C
Humidité: 100%
Clouds: Couvert
Visibility: 10 km
Cloud details: Couvert 213 m
2017/12/13 12:30 LFOP 131230Z AUTO 22012KT 9999 OVC007 08/08 Q//// TEMPO 4000 RA BKN004
 
EBBR - Brussels Nationa, Belgium
Distance from station: NE 148km
Mise à jour: 13/12/2017 13:50
Pluie faible, Très nuageux
Pluie faible, Très nuageux
 Vent SO
Vent: SO 19 km/h
Température: 6°C
Température au vent: 3°C
Point de rosée: 5°C
Humidité: 93%
Baromètre: 999 hPa
Résumé: Pluie faible
Clouds: Très nuageux
Visibility: 10 km
Cloud details: Très nuageux 305 m
2017/12/13 12:50 EBBR 131250Z 22010KT 9999 -RA BKN010 06/05 Q0999 NOSIG
EBBE - Beauvechain (baf, Belgium
Distance from station: ENE 156km
Mise à jour: 13/12/2017 13:25
Pluie faible, Très nuageux
Pluie faible, Très nuageux
 Vent SSO
Vent: SSO 33 km/h
Température: 5°C
Température au vent: 0°C
Point de rosée: 3°C
Humidité: 87%
Baromètre: 1000 hPa
Résumé: Pluie faible
Clouds: Très nuageux
Visibility: 10 km
Cloud details: Quelques nuages 274 m
Partiellement nuageux 427 m
Très nuageux 762 m
2017/12/13 12:25 EBBE 131225Z 20018KT 9999 -RA FEW009 SCT014 BKN025 05/03 Q1000 GRN GRN TEMPO YLO
EHFS - Vlissingen, Netherlands
Distance from station: NNE 157km
Mise à jour: 13/12/2017 13:25
Crachin léger, Pluie, Très nuageux
Crachin léger, Pluie, Très nuageux
 Vent SO
Vent: SO 28 km/h
Température: 7°C
Température au vent: 3°C
Point de rosée: 6°C
Humidité: 93%
Baromètre: 998 hPa
Résumé: Crachin léger, Pluie
Clouds: Très nuageux
Visibility: 10 km
Cloud details: Quelques nuages 975 m
Partiellement nuageux 1158 m
Très nuageux 1311 m
2017/12/13 12:25 EHFS 131225Z AUTO 22015KT 9999 -DZRA FEW032/// SCT038/// BKN043/// 07/06 Q0998 REDZ W///H///
 
LFPV - Villacoublay/Vel, France
Distance from station: SSO 157km
Mise à jour: 13/12/2017 13:30
Couvert
Couvert
 Vent SO
Vent: SO 17 km/h
Température: 7°C
Température au vent: 4°C
Point de rosée: 7°C
Humidité: 100%
Baromètre: 1004 hPa
Clouds: Couvert
Visibility: 10 km
Cloud details: Couvert 152 m
2017/12/13 12:30 LFPV 131230Z AUTO 22009KT 190V250 9999 OVC005 07/07 Q1004 BECMG 20015G25KT BKN016
EGMD - Lydd Airport, United Kingdom
Distance from station: NO 160km
Mise à jour: 13/12/2017 13:50
Partiellement nuageux
Partiellement nuageux
 Vent SO
Vent: SO 28 km/h
Température: 10°C
Température au vent: 7°C
Point de rosée: 8°C
Humidité: 88%
Baromètre: 997 hPa
Clouds: Partiellement nuageux
Visibility: 10 km
Cloud details: Quelques nuages 579 m
Partiellement nuageux 1372 m
2017/12/13 12:50 EGMD 131250Z 23015KT 9999 FEW019 SCT045 10/08 Q0997